createdAt,value
2023-05-14T00:00:53.447Z,102198.91
2023-05-14T00:03:20.071Z,102190.97
2023-05-14T00:05:48.411Z,102195.56
2023-05-14T00:08:15.041Z,102190.50
2023-05-14T00:10:41.722Z,102189.53
2023-05-14T00:13:08.287Z,102178.97
2023-05-14T00:15:35.258Z,102187.00
2023-05-14T00:18:02.043Z,102174.56
2023-05-14T00:20:28.612Z,102175.59
2023-05-14T00:22:55.430Z,102176.66
2023-05-14T00:25:21.985Z,102178.47
2023-05-14T00:27:48.621Z,102176.69
2023-05-14T00:30:15.284Z,102173.16
2023-05-14T00:32:41.926Z,102168.72
2023-05-14T00:35:08.988Z,102168.91
2023-05-14T00:37:36.402Z,102164.50
2023-05-14T00:40:04.459Z,102161.81
2023-05-14T00:42:30.972Z,102153.00
2023-05-14T00:44:57.541Z,102156.66
2023-05-14T00:47:24.182Z,102155.75
2023-05-14T00:49:50.852Z,102153.13
2023-05-14T00:52:18.046Z,102143.41
2023-05-14T00:54:46.923Z,102144.34
2023-05-14T00:57:13.723Z,102141.75
2023-05-14T00:59:42.945Z,102145.44
2023-05-14T01:02:09.560Z,102138.38
2023-05-14T01:04:37.655Z,102140.22
2023-05-14T01:07:38.525Z,102140.25
2023-05-14T01:10:24.484Z,102147.50
2023-05-14T01:12:57.014Z,102140.41
2023-05-14T01:15:31.936Z,102141.50
2023-05-14T01:18:19.387Z,102138.00
2023-05-14T01:20:46.220Z,102140.75
2023-05-14T01:23:12.767Z,102141.69
2023-05-14T01:25:39.376Z,102140.81
2023-05-14T01:28:19.230Z,102142.69
2023-05-14T01:30:54.612Z,102137.41
2023-05-14T01:33:24.900Z,102147.31
2023-05-14T01:35:54.125Z,102143.84
2023-05-14T01:38:22.988Z,102148.38
2023-05-14T01:40:50.761Z,102143.94
2023-05-14T01:43:18.977Z,102144.91
2023-05-14T01:45:45.984Z,102144.03
2023-05-14T01:48:12.601Z,102134.34
2023-05-14T01:50:39.118Z,102139.69
2023-05-14T01:53:05.793Z,102133.47
2023-05-14T01:55:32.348Z,102129.91
2023-05-14T01:57:59.004Z,102133.63
2023-05-14T02:00:28.638Z,102128.22
2023-05-14T02:02:55.324Z,102117.72
2023-05-14T02:05:21.990Z,102120.38
2023-05-14T02:07:48.569Z,102117.78
2023-05-14T02:10:15.151Z,102116.06
2023-05-14T02:12:41.746Z,102103.69
2023-05-14T02:15:10.825Z,102105.47
2023-05-14T02:17:37.552Z,102104.59
2023-05-14T02:20:04.448Z,102099.38
2023-05-14T02:22:30.967Z,102110.00
2023-05-14T02:24:57.481Z,102106.53
2023-05-14T02:27:23.995Z,102113.69
2023-05-14T02:29:50.507Z,102117.28
2023-05-14T02:32:17.090Z,102108.44
2023-05-14T02:34:43.614Z,102108.47
2023-05-14T02:37:10.154Z,102107.66
2023-05-14T02:39:36.667Z,102105.00
2023-05-14T02:42:03.309Z,102104.19
2023-05-14T02:44:31.716Z,102096.13
2023-05-14T02:46:58.288Z,102101.53
2023-05-14T02:49:24.896Z,102093.56
2023-05-14T02:51:51.623Z,102096.25
2023-05-14T02:54:18.165Z,102096.34
2023-05-14T02:56:44.723Z,102092.84
2023-05-14T02:59:11.420Z,102096.41
2023-05-14T03:01:38.400Z,102092.00
2023-05-14T03:04:05.507Z,102092.03
2023-05-14T03:06:32.051Z,102087.63
2023-05-14T03:08:58.666Z,102090.41
2023-05-14T03:11:28.315Z,102094.88
2023-05-14T03:13:54.825Z,102089.59
2023-05-14T03:16:21.460Z,102087.91
2023-05-14T03:18:48.135Z,102088.72
2023-05-14T03:21:14.713Z,102087.91
2023-05-14T03:23:41.423Z,102090.66
2023-05-14T03:26:08.322Z,102092.47
2023-05-14T03:28:34.930Z,102093.38
2023-05-14T03:31:01.629Z,102091.63
2023-05-14T03:33:28.363Z,102097.88
2023-05-14T03:35:54.927Z,102090.81
2023-05-14T03:38:21.605Z,102088.19
2023-05-14T03:40:48.182Z,102089.97
2023-05-14T03:43:14.786Z,102089.97
2023-05-14T03:45:41.296Z,102089.09
2023-05-14T03:48:08.098Z,102088.22
2023-05-14T03:50:34.961Z,102091.75
2023-05-14T03:53:01.586Z,102085.50
2023-05-14T03:55:28.193Z,102087.31
2023-05-14T03:57:54.913Z,102079.31
2023-05-14T04:00:21.948Z,102080.19
2023-05-14T04:02:48.687Z,102081.06
2023-05-14T04:05:15.319Z,102086.41
2023-05-14T04:07:41.869Z,102073.03
2023-05-14T04:10:08.915Z,102068.66
2023-05-14T04:12:35.652Z,102075.78
2023-05-14T04:15:02.194Z,102072.25
2023-05-14T04:17:28.802Z,102071.31
2023-05-14T04:19:55.406Z,102067.75
2023-05-14T04:22:22.061Z,102063.28
2023-05-14T04:24:48.650Z,102068.63
2023-05-14T04:27:23.757Z,102077.53
2023-05-14T04:29:50.601Z,102072.25
2023-05-14T04:32:18.221Z,102073.16
2023-05-14T04:34:45.046Z,102070.50
2023-05-14T04:37:11.721Z,102067.78
2023-05-14T04:39:38.501Z,102071.41
2023-05-14T04:42:06.522Z,102074.91
2023-05-14T04:44:34.625Z,102072.19
2023-05-14T04:47:01.975Z,102071.31
2023-05-14T04:49:28.992Z,102071.19
2023-05-14T04:51:55.757Z,102076.44
2023-05-14T04:54:22.391Z,102072.78
2023-05-14T04:56:48.973Z,102076.22
2023-05-14T04:59:16.402Z,102078.88
2023-05-14T05:01:43.058Z,102072.59
2023-05-14T05:04:09.786Z,102077.81
2023-05-14T05:06:36.628Z,102075.03
2023-05-14T05:09:03.257Z,102073.06
2023-05-14T05:11:29.860Z,102076.53
2023-05-14T05:13:56.498Z,102076.50
2023-05-14T05:16:23.114Z,102073.75
2023-05-14T05:18:49.898Z,102083.44
2023-05-14T05:21:16.587Z,102082.53
2023-05-14T05:23:43.150Z,102076.25
2023-05-14T05:26:09.828Z,102086.84
2023-05-14T05:28:36.544Z,102079.66
2023-05-14T05:31:03.287Z,102091.19
2023-05-14T05:33:29.925Z,102085.72
2023-05-14T05:35:56.501Z,102084.84
2023-05-14T05:38:23.312Z,102091.06
2023-05-14T05:40:49.862Z,102082.03
2023-05-14T05:43:16.739Z,102084.66
2023-05-14T05:45:43.591Z,102081.88
2023-05-14T05:48:10.233Z,102085.38
2023-05-14T05:50:36.811Z,102093.41
2023-05-14T05:53:03.891Z,102095.91
2023-05-14T05:55:30.689Z,102094.91
2023-05-14T05:58:00.342Z,102087.69
2023-05-14T06:00:27.118Z,102090.22
2023-05-14T06:02:53.788Z,102085.69
2023-05-14T06:05:20.480Z,102090.09
2023-05-14T06:07:47.044Z,102092.75
2023-05-14T06:10:13.546Z,102103.31
2023-05-14T06:12:40.417Z,102089.00
2023-05-14T06:15:07.509Z,102084.19
2023-05-14T06:17:34.070Z,102103.53
2023-05-14T06:20:00.689Z,102108.75
2023-05-14T06:22:27.318Z,102081.84
2023-05-14T06:24:53.871Z,102087.97
2023-05-14T06:27:20.442Z,102100.34
2023-05-14T06:29:47.164Z,102104.56
2023-05-14T06:32:15.558Z,102114.13
2023-05-14T06:34:42.619Z,102098.56
2023-05-14T06:37:10.451Z,102102.59
2023-05-14T06:39:38.307Z,102103.81
2023-05-14T06:42:05.845Z,102096.78
2023-05-14T06:44:32.473Z,102085.41
2023-05-14T06:46:59.066Z,102103.66
2023-05-14T06:49:25.647Z,102098.41
2023-05-14T06:51:52.343Z,102089.72
2023-05-14T06:54:20.434Z,102088.16
2023-05-14T06:56:46.974Z,102077.19
2023-05-14T06:59:13.589Z,102083.69
2023-05-14T07:01:40.735Z,102078.97
2023-05-14T07:04:07.365Z,102075.53
2023-05-14T07:06:33.965Z,102071.63
2023-05-14T07:09:01.423Z,102082.59
2023-05-14T07:11:28.097Z,102069.03
2023-05-14T07:13:54.683Z,102082.00
2023-05-14T07:16:21.303Z,102076.16
2023-05-14T07:18:47.944Z,102075.16
2023-05-14T07:21:15.362Z,102081.19
2023-05-14T07:23:41.924Z,102079.78
2023-05-14T07:26:09.079Z,102077.06
2023-05-14T07:28:35.924Z,102078.38
2023-05-14T07:31:04.982Z,102070.03
2023-05-14T07:33:31.703Z,102074.09
2023-05-14T07:35:58.576Z,102072.09
2023-05-14T07:38:25.383Z,102070.59
2023-05-14T07:40:52.040Z,102067.91
2023-05-14T07:43:18.861Z,102070.56
2023-05-14T07:45:45.643Z,102061.88
2023-05-14T07:48:12.431Z,102056.88
2023-05-14T07:50:39.172Z,102056.31
2023-05-14T07:53:05.824Z,102063.22
2023-05-14T07:55:32.624Z,102057.25
2023-05-14T07:57:59.226Z,102052.84
2023-05-14T08:00:26.152Z,102056.84
2023-05-14T08:02:53.150Z,102052.66
2023-05-14T08:05:19.968Z,102056.84
2023-05-14T08:07:47.560Z,102056.56
2023-05-14T08:10:14.252Z,102048.97
2023-05-14T08:12:41.029Z,102053.31
2023-05-14T08:15:08.387Z,102052.84
2023-05-14T08:17:35.600Z,102051.84
2023-05-14T08:20:03.138Z,102057.88
2023-05-14T08:22:38.574Z,102061.19
2023-05-14T08:25:06.493Z,102048.78
2023-05-14T08:27:33.306Z,102052.72
2023-05-14T08:29:59.939Z,102049.31
2023-05-14T08:32:27.104Z,102044.66
2023-05-14T08:34:53.745Z,102045.09
2023-05-14T08:37:20.477Z,102039.97
2023-05-14T08:39:47.097Z,102045.94
2023-05-14T08:42:20.235Z,102043.59
2023-05-14T08:44:55.270Z,102040.50
2023-05-14T08:47:22.590Z,102041.25
2023-05-14T08:49:58.138Z,102031.16
2023-05-14T08:52:25.120Z,102025.16
2023-05-14T08:54:53.872Z,102030.63
2023-05-14T08:57:21.512Z,102023.78
2023-05-14T08:59:48.486Z,102027.06
2023-05-14T09:02:17.371Z,102024.19
2023-05-14T09:04:47.181Z,102017.72
2023-05-14T09:07:14.085Z,102018.84
2023-05-14T09:09:43.183Z,102013.97
2023-05-14T09:12:09.854Z,102016.59
2023-05-14T09:14:36.685Z,102014.66
2023-05-14T09:17:03.584Z,102011.91
2023-05-14T09:19:30.769Z,102007.25
2023-05-14T09:21:59.184Z,102013.88
2023-05-14T09:24:29.506Z,101999.97
2023-05-14T09:26:57.949Z,102000.06
2023-05-14T09:29:30.852Z,101999.41
2023-05-14T09:32:00.230Z,102009.41
2023-05-14T09:34:29.866Z,101999.28
2023-05-14T09:37:02.888Z,101992.66
2023-05-14T09:39:30.435Z,101985.78
2023-05-14T09:41:58.668Z,101992.38
2023-05-14T09:44:26.152Z,101987.28
2023-05-14T09:46:53.313Z,101983.75
2023-05-14T09:49:20.376Z,101986.72
2023-05-14T09:51:48.300Z,101977.91
2023-05-14T09:54:14.909Z,101975.94
2023-05-14T09:56:44.175Z,101987.97
2023-05-14T09:59:11.253Z,101984.41
2023-05-14T10:01:38.097Z,101972.34
2023-05-14T10:04:07.751Z,101975.84
2023-05-14T10:06:38.071Z,101972.03
2023-05-14T10:09:10.033Z,101977.38
2023-05-14T10:11:38.760Z,101976.66
2023-05-14T10:14:10.150Z,101968.88
2023-05-14T10:16:44.189Z,101970.19
2023-05-14T10:19:12.179Z,101965.03
2023-05-14T10:21:41.157Z,101961.03
2023-05-14T10:24:11.865Z,101969.09
2023-05-14T10:26:40.816Z,101959.91
2023-05-14T10:29:10.144Z,101959.06
2023-05-14T10:31:54.540Z,101954.09
2023-05-14T10:34:40.921Z,101956.81
2023-05-14T10:37:12.223Z,101957.44
2023-05-14T10:39:50.934Z,101955.34
2023-05-14T10:42:20.539Z,101958.44
2023-05-14T10:44:58.875Z,101947.28
2023-05-14T10:47:27.197Z,101950.25
2023-05-14T10:49:57.872Z,101940.72
2023-05-14T10:52:25.500Z,101942.56
2023-05-14T10:55:03.593Z,101940.19
2023-05-14T10:57:32.696Z,101935.88
2023-05-14T11:00:01.763Z,101939.03
2023-05-14T11:02:34.269Z,101933.13
2023-05-14T11:05:04.390Z,101932.81
2023-05-14T11:07:50.465Z,101922.94
2023-05-14T11:10:19.368Z,101927.31
2023-05-14T11:12:48.215Z,101920.75
2023-05-14T11:15:20.614Z,101923.06
2023-05-14T11:17:49.632Z,101920.97
2023-05-14T11:20:16.927Z,101918.09
2023-05-14T11:22:45.154Z,101916.97
2023-05-14T11:25:16.982Z,101912.50
2023-05-14T11:27:45.096Z,101909.41
2023-05-14T11:30:19.934Z,101907.06
2023-05-14T11:32:48.600Z,101913.75
2023-05-14T11:35:17.066Z,101905.31
2023-05-14T11:37:49.269Z,101900.84
2023-05-14T11:40:16.830Z,101900.38
2023-05-14T11:42:43.612Z,101895.16
2023-05-14T11:45:14.339Z,101897.34
2023-05-14T11:47:42.221Z,101897.69
2023-05-14T11:50:09.863Z,101890.13
2023-05-14T11:52:41.568Z,101889.63
2023-05-14T11:55:12.819Z,101889.25
2023-05-14T11:57:39.621Z,101891.38
2023-05-14T12:00:14.394Z,101894.88
2023-05-14T12:02:41.306Z,101884.63
2023-05-14T12:05:09.127Z,101884.41
2023-05-14T12:07:36.073Z,101885.84
2023-05-14T12:10:03.637Z,101885.53
2023-05-14T12:12:36.389Z,101873.72
2023-05-14T12:15:11.391Z,101879.63
2023-05-14T12:17:38.496Z,101873.50
2023-05-14T12:20:10.340Z,101870.19
2023-05-14T12:22:37.786Z,101875.25
2023-05-14T12:25:04.858Z,101874.28
2023-05-14T12:27:31.463Z,101870.25
2023-05-14T12:30:19.999Z,101866.06
2023-05-14T12:32:53.964Z,101866.28
2023-05-14T12:35:22.492Z,101864.81
2023-05-14T12:37:49.575Z,101862.09
2023-05-14T12:40:16.251Z,101853.44
2023-05-14T12:42:42.834Z,101848.09
2023-05-14T12:45:09.670Z,101853.56
2023-05-14T12:47:36.902Z,101849.94
2023-05-14T12:50:04.144Z,101849.41
2023-05-14T12:55:01.282Z,101844.19
2023-05-14T12:57:28.298Z,101842.03
2023-05-14T12:59:55.464Z,101835.31
2023-05-14T13:02:22.264Z,101837.06
2023-05-14T13:04:48.813Z,101834.34
2023-05-14T13:07:15.549Z,101836.19
2023-05-14T13:09:42.141Z,101828.25
2023-05-14T13:12:09.072Z,101837.94
2023-05-14T13:14:36.350Z,101831.78
2023-05-14T13:17:04.794Z,101837.44
2023-05-14T13:19:31.614Z,101827.03
2023-05-14T13:21:58.159Z,101829.00
2023-05-14T13:24:25.069Z,101823.38
2023-05-14T13:26:51.587Z,101826.88
2023-05-14T13:29:18.156Z,101821.34
2023-05-14T13:31:44.743Z,101823.22
2023-05-14T13:34:11.386Z,101817.84
2023-05-14T13:36:39.715Z,101822.03
2023-05-14T13:39:07.081Z,101812.69
2023-05-14T13:41:37.927Z,101815.06
2023-05-14T13:44:04.969Z,101814.09
2023-05-14T13:46:31.661Z,101810.19
2023-05-14T13:48:58.256Z,101811.91
2023-05-14T13:51:25.087Z,101801.97
2023-05-14T13:53:51.721Z,101805.03
2023-05-14T13:56:18.685Z,101802.94
2023-05-14T13:58:45.232Z,101809.09
2023-05-14T14:01:11.849Z,101798.44
2023-05-14T14:03:38.415Z,101796.84
2023-05-14T14:06:05.031Z,101788.69
2023-05-14T14:08:31.669Z,101788.53
2023-05-14T14:10:58.244Z,101789.00
2023-05-14T14:13:24.925Z,101787.69
2023-05-14T14:15:51.751Z,101786.19
2023-05-14T14:18:18.540Z,101789.41
2023-05-14T14:20:45.105Z,101778.94
2023-05-14T14:23:11.623Z,101787.56
2023-05-14T14:25:38.225Z,101779.00
2023-05-14T14:28:04.836Z,101780.44
2023-05-14T14:30:32.486Z,101782.19
2023-05-14T14:33:01.162Z,101777.28
2023-05-14T14:35:27.864Z,101777.91
2023-05-14T14:37:55.612Z,101769.69
2023-05-14T14:40:23.703Z,101777.09
2023-05-14T14:42:50.335Z,101775.13
2023-05-14T14:45:16.894Z,101775.69
2023-05-14T14:47:46.102Z,101776.03
2023-05-14T14:50:13.443Z,101772.13
2023-05-14T14:52:45.422Z,101774.31
2023-05-14T14:55:12.630Z,101772.97
2023-05-14T14:57:39.257Z,101767.44
2023-05-14T15:00:07.179Z,101772.88
2023-05-14T15:02:34.198Z,101769.50
2023-05-14T15:05:01.012Z,101764.84
2023-05-14T15:07:27.678Z,101772.88
2023-05-14T15:09:55.791Z,101774.50
2023-05-14T15:12:22.365Z,101769.84
2023-05-14T15:14:48.914Z,101771.03
2023-05-14T15:17:15.452Z,101763.13
2023-05-14T15:19:42.029Z,101762.34
2023-05-14T15:22:08.727Z,101762.16
2023-05-14T15:24:35.383Z,101757.19
2023-05-14T15:27:01.956Z,101755.94
2023-05-14T15:29:28.678Z,101762.16
2023-05-14T15:31:55.577Z,101760.63
2023-05-14T15:34:22.138Z,101763.75
2023-05-14T15:36:48.707Z,101756.78
2023-05-14T15:39:15.192Z,101753.06
2023-05-14T15:41:41.755Z,101747.97
2023-05-14T15:44:08.347Z,101745.38
2023-05-14T15:46:35.645Z,101750.22
2023-05-14T15:49:02.335Z,101744.47
2023-05-14T15:51:29.129Z,101740.03
2023-05-14T15:53:57.203Z,101734.38
2023-05-14T15:56:23.851Z,101731.94
2023-05-14T15:58:50.632Z,101738.03
2023-05-14T16:01:19.355Z,101734.38
2023-05-14T16:03:46.143Z,101735.88
2023-05-14T16:06:12.787Z,101741.19
2023-05-14T16:08:39.338Z,101746.47
2023-05-14T16:11:06.392Z,101745.06
2023-05-14T16:13:33.688Z,101746.91
2023-05-14T16:16:01.162Z,101751.56
2023-05-14T16:18:27.854Z,101747.44
2023-05-14T16:20:54.380Z,101745.63
2023-05-14T16:23:22.547Z,101749.69
2023-05-14T16:25:49.153Z,101749.97
2023-05-14T16:28:15.904Z,101745.72
2023-05-14T16:30:42.481Z,101749.59
2023-05-14T16:33:09.139Z,101746.44
2023-05-14T16:35:35.759Z,101749.44
2023-05-14T16:38:02.283Z,101748.13
2023-05-14T16:40:28.916Z,101750.66
2023-05-14T16:42:55.716Z,101751.72
2023-05-14T16:45:22.371Z,101751.16
2023-05-14T16:47:49.057Z,101756.97
2023-05-14T16:50:15.826Z,101753.78
2023-05-14T16:52:42.442Z,101752.66
2023-05-14T16:55:09.336Z,101757.38
2023-05-14T16:57:35.967Z,101757.16
2023-05-14T17:00:05.982Z,101758.44
2023-05-14T17:02:33.198Z,101762.00
2023-05-14T17:05:00.078Z,101762.38
2023-05-14T17:07:27.105Z,101763.56
2023-05-14T17:09:53.720Z,101765.38
2023-05-14T17:12:20.536Z,101762.88
2023-05-14T17:14:47.194Z,101759.47
2023-05-14T17:17:13.790Z,101760.06
2023-05-14T17:19:42.316Z,101757.75
2023-05-14T17:22:09.110Z,101761.59
2023-05-14T17:24:36.471Z,101767.09
2023-05-14T17:27:03.473Z,101771.41
2023-05-14T17:29:30.080Z,101766.94
2023-05-14T17:31:57.113Z,101766.69
2023-05-14T17:34:24.236Z,101771.69
2023-05-14T17:36:51.054Z,101776.47
2023-05-14T17:39:17.665Z,101765.81
2023-05-14T17:41:44.299Z,101772.09
2023-05-14T17:44:12.881Z,101772.53
2023-05-14T17:46:41.803Z,101766.78
2023-05-14T17:49:08.405Z,101768.09
2023-05-14T17:51:34.957Z,101766.31
2023-05-14T17:54:01.616Z,101784.78
2023-05-14T17:56:32.974Z,101784.38
2023-05-14T17:59:00.021Z,101789.19
2023-05-14T18:01:26.692Z,101784.72
2023-05-14T18:03:53.392Z,101790.47
2023-05-14T18:06:20.073Z,101798.16
2023-05-14T18:08:48.723Z,101791.06
2023-05-14T18:11:15.568Z,101787.50
2023-05-14T18:13:42.393Z,101790.03
2023-05-14T18:16:09.022Z,101792.03
2023-05-14T18:18:35.705Z,101800.47
2023-05-14T18:21:02.418Z,101801.34
2023-05-14T18:23:29.041Z,101800.88
2023-05-14T18:25:55.955Z,101801.72
2023-05-14T18:28:22.792Z,101803.88
2023-05-14T18:30:49.772Z,101812.47
2023-05-14T18:33:16.446Z,101809.38
2023-05-14T18:35:43.686Z,101815.19
2023-05-14T18:38:11.955Z,101810.97
2023-05-14T18:40:38.625Z,101820.31
2023-05-14T18:43:05.449Z,101816.41
2023-05-14T18:45:32.313Z,101821.31
2023-05-14T18:47:59.022Z,101818.34
2023-05-14T18:50:25.880Z,101816.91
2023-05-14T18:52:52.946Z,101824.97
2023-05-14T18:55:19.611Z,101823.50
2023-05-14T18:57:48.578Z,101836.66
2023-05-14T19:00:15.736Z,101836.16
2023-05-14T19:02:44.499Z,101833.72
2023-05-14T19:05:11.200Z,101834.31
2023-05-14T19:07:38.573Z,101830.94
2023-05-14T19:10:05.962Z,101832.25
2023-05-14T19:12:32.640Z,101834.13
2023-05-14T19:14:59.297Z,101829.88
2023-05-14T19:17:26.301Z,101838.81
2023-05-14T19:19:52.906Z,101833.78
2023-05-14T19:22:19.607Z,101828.69
2023-05-14T19:24:46.313Z,101838.69
2023-05-14T19:27:16.214Z,101831.09
2023-05-14T19:29:43.929Z,101824.91
2023-05-14T19:32:12.110Z,101829.56
2023-05-14T19:34:39.156Z,101827.09
2023-05-14T19:37:05.817Z,101830.94
2023-05-14T19:39:32.362Z,101831.13
2023-05-14T19:41:58.953Z,101836.91
2023-05-14T19:44:25.761Z,101831.09
2023-05-14T19:46:52.545Z,101835.88
2023-05-14T19:49:19.158Z,101830.84
2023-05-14T19:51:45.863Z,101830.78
2023-05-14T19:54:12.497Z,101823.06
2023-05-14T19:56:39.118Z,101830.50
2023-05-14T19:59:05.860Z,101827.66
2023-05-14T20:01:34.096Z,101823.22
2023-05-14T20:04:00.799Z,101834.16
2023-05-14T20:06:27.338Z,101837.28
2023-05-14T20:08:55.138Z,101829.34
2023-05-14T20:11:21.719Z,101833.97
2023-05-14T20:13:48.246Z,101835.03
2023-05-14T20:16:16.837Z,101837.72
2023-05-14T20:18:44.248Z,101836.03
2023-05-14T20:21:11.004Z,101831.69
2023-05-14T20:23:37.722Z,101836.13
2023-05-14T20:26:04.508Z,101829.16
2023-05-14T20:28:31.343Z,101828.50
2023-05-14T20:31:02.842Z,101826.66
2023-05-14T20:33:30.152Z,101825.16
2023-05-14T20:35:56.819Z,101818.03
2023-05-14T20:38:23.423Z,101817.34
2023-05-14T20:40:49.997Z,101819.28
2023-05-14T20:43:16.561Z,101820.94
2023-05-14T20:45:43.109Z,101810.47
2023-05-14T20:48:12.050Z,101814.91
2023-05-14T20:50:38.652Z,101811.41
2023-05-14T20:53:05.185Z,101816.97
2023-05-14T20:55:31.777Z,101809.94
2023-05-14T20:57:58.523Z,101804.63
2023-05-14T21:00:25.206Z,101810.00
2023-05-14T21:02:51.918Z,101806.56
2023-05-14T21:05:19.065Z,101798.59
2023-05-14T21:07:45.718Z,101799.56
2023-05-14T21:10:12.233Z,101796.19
2023-05-14T21:12:38.760Z,101793.63
2023-05-14T21:15:05.830Z,101792.00
2023-05-14T21:17:32.482Z,101802.72
2023-05-14T21:19:59.065Z,101802.78
2023-05-14T21:22:27.103Z,101808.13
2023-05-14T21:24:55.119Z,101799.22
2023-05-14T21:27:22.458Z,101804.75
2023-05-14T21:29:49.060Z,101810.19
2023-05-14T21:32:15.713Z,101800.63
2023-05-14T21:34:42.401Z,101815.00
2023-05-14T21:37:09.030Z,101814.13
2023-05-14T21:39:35.647Z,101806.25
2023-05-14T21:42:02.259Z,101800.16
2023-05-14T21:44:28.901Z,101799.38
2023-05-14T21:46:55.654Z,101788.84
2023-05-14T21:49:22.156Z,101791.56
2023-05-14T21:51:52.871Z,101786.41
2023-05-14T21:54:19.889Z,101780.38
2023-05-14T21:56:46.763Z,101787.44
2023-05-14T21:59:13.350Z,101784.84
2023-05-14T22:01:56.069Z,101786.72
2023-05-14T22:04:26.429Z,101786.84
2023-05-14T22:06:53.065Z,101789.56
2023-05-14T22:09:19.652Z,101790.66
2023-05-14T22:11:46.297Z,101783.66
2023-05-14T22:14:12.831Z,101781.94
2023-05-14T22:16:39.451Z,101787.47
2023-05-14T22:19:06.792Z,101773.28
2023-05-14T22:21:33.829Z,101778.69
2023-05-14T22:24:00.530Z,101774.16
2023-05-14T22:26:27.085Z,101783.25
2023-05-14T22:28:53.722Z,101775.19
2023-05-14T22:31:20.351Z,101775.31
2023-05-14T22:33:46.942Z,101770.94
2023-05-14T22:36:13.526Z,101775.22
2023-05-14T22:38:41.173Z,101773.66
2023-05-14T22:41:07.810Z,101773.69
2023-05-14T22:43:34.387Z,101764.13
2023-05-14T22:46:01.064Z,101761.47
2023-05-14T22:48:27.714Z,101756.25
2023-05-14T22:50:54.307Z,101758.88
2023-05-14T22:53:20.842Z,101752.69
2023-05-14T22:55:50.532Z,101758.97
2023-05-14T22:58:17.110Z,101751.94
2023-05-14T23:00:43.846Z,101748.69
2023-05-14T23:03:10.449Z,101743.41
2023-05-14T23:05:36.974Z,101743.31
2023-05-14T23:08:03.743Z,101729.94
2023-05-14T23:10:30.362Z,101735.38
2023-05-14T23:12:56.890Z,101738.06
2023-05-14T23:15:23.626Z,101743.31
2023-05-14T23:17:50.623Z,101736.41
2023-05-14T23:20:17.360Z,101738.25
2023-05-14T23:22:43.943Z,101749.72
2023-05-14T23:25:10.972Z,101742.72
2023-05-14T23:27:41.012Z,101730.22
2023-05-14T23:30:08.010Z,101734.69
2023-05-14T23:32:34.738Z,101726.66
2023-05-14T23:35:01.302Z,101723.06
2023-05-14T23:37:28.030Z,101714.22
2023-05-14T23:39:54.624Z,101715.97
2023-05-14T23:42:21.146Z,101710.66
2023-05-14T23:44:47.983Z,101705.22
2023-05-14T23:47:14.662Z,101703.47
2023-05-14T23:49:42.625Z,101700.97
2023-05-14T23:52:09.270Z,101698.19
2023-05-14T23:54:35.801Z,101690.41
2023-05-14T23:57:03.984Z,101690.50
2023-05-14T23:59:30.561Z,101691.41
